createdAt,value
2018-12-14T00:01:32.446Z,1.40
2018-12-14T00:06:39.115Z,1.40
2018-12-14T00:11:45.734Z,1.30
2018-12-14T00:16:51.728Z,1.30
2018-12-14T00:21:56.533Z,1.30
2018-12-14T00:27:01.345Z,1.30
2018-12-14T00:32:06.401Z,1.20
2018-12-14T00:37:11.118Z,1.20
2018-12-14T00:42:15.859Z,1.20
2018-12-14T00:47:20.603Z,1.20
2018-12-14T00:52:25.343Z,1.10
2018-12-14T00:57:30.046Z,1.10
2018-12-14T01:02:35.067Z,1.00
2018-12-14T01:07:40.061Z,0.90
2018-12-14T01:12:44.907Z,0.90
2018-12-14T01:17:49.905Z,0.90
2018-12-14T01:22:54.721Z,0.80
2018-12-14T01:27:59.456Z,0.80
2018-12-14T01:33:04.256Z,0.80
2018-12-14T01:38:09.226Z,0.80
2018-12-14T01:43:14.260Z,0.80
2018-12-14T01:48:18.954Z,0.80
2018-12-14T01:53:23.687Z,0.70
2018-12-14T01:58:28.385Z,0.70
2018-12-14T02:03:33.153Z,0.80
2018-12-14T02:08:38.169Z,0.70
2018-12-14T02:13:42.915Z,0.70
2018-12-14T02:18:48.274Z,0.70
2018-12-14T02:23:53.017Z,0.70
2018-12-14T02:28:57.716Z,0.70
2018-12-14T02:34:02.444Z,0.70
2018-12-14T02:39:07.369Z,0.70
2018-12-14T02:44:13.131Z,0.60
2018-12-14T02:49:17.909Z,0.60
2018-12-14T02:54:22.692Z,0.60
2018-12-14T05:07:55.290Z,0.90
2018-12-14T05:13:00.037Z,0.90
2018-12-14T05:18:04.803Z,0.90
2018-12-14T05:23:09.535Z,0.80
2018-12-14T05:28:14.655Z,0.90
2018-12-14T05:33:19.413Z,0.90
2018-12-14T05:38:24.459Z,0.90
2018-12-14T05:43:29.208Z,0.90
2018-12-14T05:48:34.025Z,0.90
2018-12-14T05:53:38.813Z,0.90
2018-12-14T05:58:43.589Z,0.90
2018-12-14T06:03:49.350Z,0.90
2018-12-14T06:08:54.124Z,0.90
2018-12-14T06:13:58.888Z,0.90
2018-12-14T06:19:03.649Z,0.90
2018-12-14T06:24:09.181Z,0.90
2018-12-14T06:29:14.126Z,0.90
2018-12-14T06:34:18.888Z,0.80
2018-12-14T06:39:23.954Z,0.80
2018-12-14T06:44:29.006Z,0.90
2018-12-14T06:49:34.029Z,0.90
2018-12-14T06:54:38.814Z,0.90
2018-12-14T06:59:43.545Z,0.90
2018-12-14T07:04:48.628Z,1.00
2018-12-14T07:09:53.437Z,1.00
2018-12-14T07:14:58.216Z,1.10
2018-12-14T07:20:02.996Z,1.10
2018-12-14T07:25:07.748Z,1.10
2018-12-14T07:30:12.571Z,1.10
2018-12-14T07:35:17.328Z,1.20
2018-12-14T07:40:22.312Z,1.20
2018-12-14T07:45:27.079Z,1.30
2018-12-14T07:50:31.833Z,1.30
2018-12-14T07:55:36.613Z,1.20
2018-12-14T08:00:41.399Z,1.30
2018-12-14T08:05:46.166Z,1.30
2018-12-14T08:10:50.936Z,1.30
2018-12-14T08:15:55.807Z,1.50
2018-12-14T08:21:00.619Z,1.50
2018-12-14T08:26:05.429Z,1.60
2018-12-14T08:31:10.254Z,1.50
2018-12-14T08:36:15.098Z,1.60
2018-12-14T08:41:19.908Z,1.60
2018-12-14T08:46:24.689Z,1.60
2018-12-14T08:51:29.574Z,1.50
2018-12-14T08:56:34.754Z,1.60
2018-12-14T09:01:39.769Z,1.70
2018-12-14T09:06:45.037Z,1.70
2018-12-14T09:11:51.025Z,1.80
2018-12-14T09:16:56.521Z,1.90
2018-12-14T09:22:01.314Z,3.00
2018-12-14T09:27:06.155Z,4.10
2018-12-14T09:32:11.024Z,4.00
2018-12-14T09:37:15.882Z,4.40
2018-12-14T09:42:20.841Z,3.50
2018-12-14T09:47:25.704Z,3.80
2018-12-14T09:52:30.489Z,3.80
2018-12-14T09:57:35.346Z,3.30
2018-12-14T10:02:40.223Z,3.80
2018-12-14T10:07:47.043Z,3.60
2018-12-14T10:12:51.807Z,3.00
2018-12-14T10:17:56.670Z,3.10
2018-12-14T10:23:01.400Z,3.20
2018-12-14T10:28:06.300Z,3.30
2018-12-14T10:33:11.107Z,2.70
2018-12-14T10:38:16.337Z,2.70
2018-12-14T10:43:21.117Z,2.90
2018-12-14T10:48:25.937Z,2.90
2018-12-14T10:53:30.968Z,2.80
2018-12-14T10:58:35.732Z,2.70
2018-12-14T11:03:40.512Z,2.30
2018-12-14T11:08:45.273Z,2.40
2018-12-14T11:13:51.383Z,2.30
2018-12-14T11:18:56.356Z,2.30
2018-12-14T11:24:01.170Z,2.20
2018-12-14T11:29:05.939Z,2.40
2018-12-14T11:34:10.694Z,2.30
2018-12-14T11:39:15.426Z,2.40
2018-12-14T11:44:21.286Z,2.30
2018-12-14T11:49:26.982Z,2.50
2018-12-14T11:54:31.732Z,2.50
2018-12-14T11:59:36.579Z,2.40
2018-12-14T12:04:41.660Z,2.30
2018-12-14T12:09:47.160Z,2.40
2018-12-14T12:14:53.007Z,2.40
2018-12-14T12:19:57.765Z,2.50
2018-12-14T12:25:02.637Z,2.40
2018-12-14T12:30:08.566Z,2.20
2018-12-14T12:35:13.314Z,2.40
2018-12-14T12:40:18.094Z,2.40
2018-12-14T12:45:22.895Z,2.40
2018-12-14T12:50:27.663Z,2.30
2018-12-14T12:55:32.414Z,2.40
2018-12-14T13:00:37.217Z,2.20
2018-12-14T13:05:42.011Z,2.30
2018-12-14T13:10:46.954Z,2.30
2018-12-14T13:15:51.781Z,2.30
2018-12-14T13:20:56.629Z,2.30
2018-12-14T13:26:01.428Z,2.40
2018-12-14T13:31:06.233Z,2.30
2018-12-14T13:36:11.182Z,2.20
2018-12-14T13:41:15.953Z,2.30
2018-12-14T13:46:20.877Z,2.30
2018-12-14T13:51:25.829Z,2.40
2018-12-14T13:56:30.622Z,2.40
2018-12-14T14:01:35.433Z,2.40
2018-12-14T14:06:40.583Z,2.40
2018-12-14T14:11:45.330Z,2.40
2018-12-14T14:16:51.101Z,2.40
2018-12-14T14:21:56.103Z,2.40
2018-12-14T14:27:01.065Z,2.40
2018-12-14T14:32:05.855Z,2.40
2018-12-14T14:37:11.767Z,2.40
2018-12-14T14:42:16.587Z,2.40
2018-12-14T14:47:21.406Z,2.40
2018-12-14T14:52:26.205Z,2.40
2018-12-14T14:57:31.589Z,2.40
2018-12-14T15:02:36.817Z,2.30
2018-12-14T15:07:41.928Z,2.20
2018-12-14T15:12:46.900Z,2.20
2018-12-14T15:17:51.624Z,2.20
2018-12-14T15:22:56.667Z,2.20
2018-12-14T15:28:01.424Z,2.10
2018-12-14T15:33:06.167Z,2.10
2018-12-14T15:38:10.871Z,2.10
2018-12-14T15:43:15.713Z,2.10
2018-12-14T15:48:20.626Z,2.10
2018-12-14T15:53:25.387Z,2.20
2018-12-14T15:58:30.175Z,2.10
2018-12-14T16:03:35.209Z,2.20
2018-12-14T16:08:39.979Z,2.20
2018-12-14T16:13:45.127Z,2.20
2018-12-14T16:18:49.946Z,2.20
2018-12-14T16:23:54.757Z,2.30
2018-12-14T16:28:59.557Z,2.30
2018-12-14T16:34:04.709Z,2.20
2018-12-14T16:39:09.469Z,2.20
2018-12-14T16:44:16.394Z,2.20
2018-12-14T16:49:21.800Z,2.20
2018-12-14T16:54:26.683Z,2.30
2018-12-14T16:59:31.474Z,2.20
2018-12-14T17:04:36.202Z,2.20
2018-12-14T17:09:40.978Z,2.20
2018-12-14T17:14:45.754Z,2.20
2018-12-14T17:19:50.534Z,2.20
2018-12-14T17:24:55.957Z,2.20
2018-12-14T17:30:00.702Z,2.20
2018-12-14T17:35:06.098Z,2.20
2018-12-14T17:40:11.091Z,2.20
2018-12-14T17:45:17.833Z,2.20
2018-12-14T17:50:22.653Z,2.10
2018-12-14T17:55:27.398Z,2.10
2018-12-14T18:00:32.244Z,2.00
2018-12-14T18:05:36.976Z,2.00
2018-12-14T18:10:41.858Z,1.90
2018-12-14T18:15:46.753Z,1.80
2018-12-14T18:20:51.543Z,1.80
2018-12-14T18:25:56.292Z,1.90
2018-12-14T18:31:01.021Z,2.00
2018-12-14T18:36:05.754Z,2.00
2018-12-14T18:41:11.015Z,2.10
2018-12-14T18:46:15.761Z,2.10
2018-12-14T18:51:20.617Z,2.10
2018-12-14T18:56:25.360Z,2.20
2018-12-14T19:01:30.117Z,2.10
2018-12-14T19:06:34.941Z,2.10
2018-12-14T19:11:39.705Z,2.10
2018-12-14T19:16:44.536Z,2.10
2018-12-14T19:21:49.558Z,2.10
2018-12-14T19:26:54.355Z,2.10
2018-12-14T19:31:59.144Z,2.10
2018-12-14T19:37:04.334Z,2.10
2018-12-14T19:42:10.516Z,2.10
2018-12-14T19:47:15.261Z,2.10
2018-12-14T19:52:20.105Z,2.10
2018-12-14T19:57:25.170Z,2.10
2018-12-14T20:02:30.069Z,2.00
2018-12-14T20:07:34.840Z,2.10
2018-12-14T20:12:39.581Z,2.10
2018-12-14T20:17:44.423Z,2.00
2018-12-14T20:22:49.188Z,2.10
2018-12-14T20:27:53.970Z,2.00
2018-12-14T20:32:58.946Z,2.00
2018-12-14T20:38:04.085Z,1.90
2018-12-14T20:43:08.841Z,1.90
2018-12-14T20:48:13.608Z,2.00
2018-12-14T20:53:18.373Z,1.90
2018-12-14T20:58:23.149Z,2.00
2018-12-14T21:03:27.937Z,2.00
2018-12-14T21:08:32.724Z,2.00
2018-12-14T21:13:37.437Z,2.00
2018-12-14T21:18:42.185Z,2.00
2018-12-14T21:23:46.892Z,1.90
2018-12-14T21:28:51.615Z,2.00
2018-12-14T21:33:56.421Z,2.00
2018-12-14T21:39:01.449Z,2.00
2018-12-14T21:44:06.178Z,2.00
2018-12-14T21:49:10.895Z,2.00
2018-12-14T21:54:16.092Z,2.00
2018-12-14T21:59:20.812Z,2.00
2018-12-14T22:04:25.499Z,2.00
2018-12-14T22:09:30.209Z,2.00
2018-12-14T22:14:34.960Z,2.00
2018-12-14T22:19:39.685Z,2.00
2018-12-14T22:24:44.434Z,2.00
2018-12-14T22:29:50.083Z,2.00
2018-12-14T22:34:54.840Z,2.00
2018-12-14T22:39:59.670Z,2.10
2018-12-14T22:45:05.333Z,2.10
2018-12-14T22:50:10.186Z,2.00
2018-12-14T22:55:14.903Z,2.00
2018-12-14T23:00:19.923Z,2.10
2018-12-14T23:05:26.594Z,2.10
2018-12-14T23:10:31.338Z,2.10
2018-12-14T23:15:38.055Z,2.10
2018-12-14T23:20:43.075Z,2.10
2018-12-14T23:25:48.562Z,2.20
2018-12-14T23:30:53.528Z,2.20
2018-12-14T23:35:58.260Z,2.20
2018-12-14T23:41:02.990Z,2.20
2018-12-14T23:46:07.706Z,2.20
2018-12-14T23:51:12.450Z,2.10
2018-12-14T23:56:17.273Z,2.10
